createdAt,value
2024-02-16T00:01:31.514Z,91.50
2024-02-16T00:04:10.268Z,91.60
2024-02-16T00:06:42.774Z,91.60
2024-02-16T00:09:21.421Z,91.50
2024-02-16T00:11:53.790Z,91.40
2024-02-16T00:14:33.473Z,91.70
2024-02-16T00:17:06.122Z,91.70
2024-02-16T00:19:45.370Z,91.80
2024-02-16T00:22:17.771Z,91.50
2024-02-16T00:24:56.266Z,91.60
2024-02-16T00:27:28.543Z,91.50
2024-02-16T00:30:07.494Z,91.60
2024-02-16T00:32:40.031Z,91.50
2024-02-16T00:35:23.329Z,91.40
2024-02-16T00:37:55.686Z,91.50
2024-02-16T00:40:37.187Z,91.40
2024-02-16T00:43:09.674Z,91.50
2024-02-16T00:45:48.288Z,91.50
2024-02-16T00:48:20.499Z,91.40
2024-02-16T00:50:59.611Z,91.50
2024-02-16T00:53:31.951Z,91.50
2024-02-16T00:56:11.322Z,91.70
2024-02-16T00:58:43.479Z,91.90
2024-02-16T01:01:22.552Z,91.80
2024-02-16T01:03:54.899Z,92.00
2024-02-16T01:06:33.346Z,91.80
2024-02-16T01:09:05.934Z,91.90
2024-02-16T01:11:44.301Z,91.80
2024-02-16T01:14:16.619Z,91.80
2024-02-16T01:16:55.343Z,92.00
2024-02-16T01:19:27.603Z,91.90
2024-02-16T01:22:06.355Z,92.00
2024-02-16T01:24:38.695Z,92.10
2024-02-16T01:27:17.417Z,91.90
2024-02-16T01:29:49.621Z,92.00
2024-02-16T01:32:28.591Z,92.00
2024-02-16T01:35:00.928Z,92.00
2024-02-16T01:37:40.259Z,91.90
2024-02-16T01:40:12.868Z,92.00
2024-02-16T01:42:52.386Z,92.00
2024-02-16T01:45:24.917Z,92.30
2024-02-16T01:48:04.664Z,92.20
2024-02-16T01:50:38.362Z,92.40
2024-02-16T01:53:19.349Z,92.20
2024-02-16T01:55:52.079Z,92.20
2024-02-16T01:58:31.391Z,92.40
2024-02-16T02:01:03.771Z,92.20
2024-02-16T02:03:42.617Z,92.30
2024-02-16T02:06:14.942Z,92.30
2024-02-16T02:08:53.306Z,92.20
2024-02-16T02:11:26.130Z,92.30
2024-02-16T02:14:05.238Z,92.30
2024-02-16T02:16:44.779Z,92.30
2024-02-16T02:19:30.425Z,92.30
2024-02-16T02:22:02.714Z,92.10
2024-02-16T02:24:41.397Z,92.10
2024-02-16T02:27:14.501Z,92.30
2024-02-16T02:29:53.421Z,92.30
2024-02-16T02:32:25.935Z,92.20
2024-02-16T02:35:04.583Z,92.30
2024-02-16T02:37:36.935Z,92.40
2024-02-16T02:40:16.337Z,92.40
2024-02-16T02:42:48.518Z,92.40
2024-02-16T02:45:27.361Z,92.30
2024-02-16T02:47:59.545Z,92.30
2024-02-16T02:50:38.410Z,92.20
2024-02-16T02:53:10.664Z,92.40
2024-02-16T02:55:49.393Z,92.50
2024-02-16T02:58:21.697Z,92.20
2024-02-16T03:01:00.318Z,92.10
2024-02-16T03:03:32.565Z,92.00
2024-02-16T03:06:11.559Z,92.10
2024-02-16T03:08:43.959Z,92.10
2024-02-16T03:11:22.522Z,92.20
2024-02-16T03:13:54.803Z,92.00
2024-02-16T03:16:33.563Z,92.10
2024-02-16T03:19:08.155Z,92.30
2024-02-16T03:21:47.334Z,92.10
2024-02-16T03:24:19.703Z,92.00
2024-02-16T03:26:58.313Z,92.00
2024-02-16T03:29:30.768Z,92.00
2024-02-16T03:32:10.505Z,91.90
2024-02-16T03:34:42.788Z,91.90
2024-02-16T03:37:21.326Z,91.90
2024-02-16T03:39:53.533Z,92.00
2024-02-16T03:42:32.375Z,92.00
2024-02-16T03:45:05.229Z,91.90
2024-02-16T03:47:44.392Z,92.10
2024-02-16T03:50:16.983Z,92.20
2024-02-16T03:52:56.519Z,92.30
2024-02-16T03:55:28.695Z,92.10
2024-02-16T03:58:07.359Z,92.20
2024-02-16T04:00:39.640Z,91.90
2024-02-16T04:03:18.583Z,92.20
2024-02-16T04:05:51.089Z,92.10
2024-02-16T04:08:29.443Z,92.20
2024-02-16T04:11:01.668Z,92.20
2024-02-16T04:13:40.357Z,92.20
2024-02-16T04:16:12.570Z,92.40
2024-02-16T04:18:51.472Z,92.50
2024-02-16T04:21:23.868Z,92.20
2024-02-16T04:24:02.385Z,92.30
2024-02-16T04:26:34.708Z,92.30
2024-02-16T04:29:13.674Z,92.40
2024-02-16T04:31:46.105Z,92.40
2024-02-16T04:34:24.444Z,92.40
2024-02-16T04:36:56.655Z,92.60
2024-02-16T04:39:35.546Z,92.50
2024-02-16T04:42:07.893Z,92.50
2024-02-16T04:44:47.453Z,92.50
2024-02-16T04:47:19.782Z,92.50
2024-02-16T04:49:58.372Z,92.30
2024-02-16T04:52:31.208Z,92.30
2024-02-16T04:55:10.483Z,92.50
2024-02-16T04:57:42.727Z,92.50
2024-02-16T05:00:22.618Z,92.40
2024-02-16T05:02:55.198Z,92.50
2024-02-16T05:05:34.433Z,92.70
2024-02-16T05:08:07.228Z,92.50
2024-02-16T05:10:46.457Z,92.50
2024-02-16T05:13:18.838Z,92.50
2024-02-16T05:15:57.369Z,92.50
2024-02-16T05:18:29.677Z,92.70
2024-02-16T05:21:08.370Z,92.50
2024-02-16T05:23:40.594Z,92.50
2024-02-16T05:26:19.418Z,92.60
2024-02-16T05:28:51.707Z,92.70
2024-02-16T05:31:30.583Z,92.60
2024-02-16T05:34:03.102Z,92.70
2024-02-16T05:36:41.400Z,92.80
2024-02-16T05:39:13.567Z,92.60
2024-02-16T05:41:52.594Z,92.80
2024-02-16T05:44:24.835Z,92.60
2024-02-16T05:47:03.424Z,92.80
2024-02-16T05:49:35.695Z,92.80
2024-02-16T05:52:14.658Z,92.90
2024-02-16T05:54:50.472Z,92.90
2024-02-16T05:57:29.521Z,92.80
2024-02-16T06:00:02.347Z,92.70
2024-02-16T06:02:41.492Z,92.80
2024-02-16T06:05:13.906Z,92.80
2024-02-16T06:07:52.455Z,92.70
2024-02-16T06:10:24.899Z,92.70
2024-02-16T06:13:03.613Z,92.80
2024-02-16T06:15:35.834Z,92.70
2024-02-16T06:18:14.541Z,92.70
2024-02-16T06:20:46.973Z,92.80
2024-02-16T06:23:25.462Z,92.70
2024-02-16T06:25:57.669Z,92.70
2024-02-16T06:28:36.468Z,92.70
2024-02-16T06:31:08.696Z,92.70
2024-02-16T06:33:48.030Z,92.70
2024-02-16T06:36:20.304Z,92.70
2024-02-16T06:38:59.701Z,92.70
2024-02-16T06:41:32.139Z,92.70
2024-02-16T06:44:12.493Z,92.70
2024-02-16T06:46:44.935Z,92.70
2024-02-16T06:49:23.464Z,92.60
2024-02-16T06:51:55.879Z,92.80
2024-02-16T06:54:34.563Z,92.60
2024-02-16T06:57:08.289Z,92.60
2024-02-16T06:59:48.531Z,92.70
2024-02-16T07:02:21.042Z,92.70
2024-02-16T07:04:59.508Z,92.60
2024-02-16T07:07:31.827Z,92.60
2024-02-16T07:10:10.451Z,92.60
2024-02-16T07:12:42.958Z,92.70
2024-02-16T07:15:21.547Z,92.60
2024-02-16T07:17:54.642Z,92.50
2024-02-16T07:20:33.493Z,92.60
2024-02-16T07:23:05.710Z,92.60
2024-02-16T07:25:44.456Z,92.60
2024-02-16T07:28:16.833Z,92.50
2024-02-16T07:30:55.635Z,92.50
2024-02-16T07:33:28.221Z,92.50
2024-02-16T07:36:07.432Z,92.40
2024-02-16T07:38:39.738Z,92.40
2024-02-16T07:41:18.573Z,92.30
2024-02-16T07:43:50.861Z,92.50
2024-02-16T07:46:31.277Z,92.40
2024-02-16T07:49:04.871Z,92.50
2024-02-16T07:51:43.675Z,92.40
2024-02-16T07:54:15.998Z,92.40
2024-02-16T07:56:54.589Z,92.50
2024-02-16T07:59:27.183Z,92.30
2024-02-16T08:02:05.498Z,92.40
2024-02-16T08:04:38.321Z,92.30
2024-02-16T08:07:17.783Z,92.40
2024-02-16T08:09:50.320Z,92.30
2024-02-16T08:12:29.530Z,92.50
2024-02-16T08:15:01.835Z,92.40
2024-02-16T08:17:44.504Z,92.50
2024-02-16T08:20:16.865Z,92.50
2024-02-16T08:22:55.481Z,92.50
2024-02-16T08:25:27.605Z,92.40
2024-02-16T08:28:06.581Z,92.50
2024-02-16T08:30:39.255Z,92.40
2024-02-16T08:33:21.716Z,92.40
2024-02-16T08:35:54.153Z,92.30
2024-02-16T08:38:32.588Z,92.30
2024-02-16T08:41:04.852Z,92.30
2024-02-16T08:43:43.576Z,92.20
2024-02-16T08:46:15.700Z,92.00
2024-02-16T08:48:55.820Z,92.00
2024-02-16T08:51:28.100Z,92.10
2024-02-16T08:54:10.957Z,92.00
2024-02-16T08:56:43.314Z,92.00
2024-02-16T08:59:22.553Z,91.80
2024-02-16T09:01:54.721Z,91.90
2024-02-16T09:04:33.711Z,91.80
2024-02-16T09:07:06.148Z,91.90
2024-02-16T09:09:44.790Z,91.80
2024-02-16T09:12:17.197Z,91.80
2024-02-16T09:14:55.652Z,91.80
2024-02-16T09:17:28.170Z,91.70
2024-02-16T09:20:06.586Z,91.70
2024-02-16T09:22:46.775Z,91.60
2024-02-16T09:25:26.488Z,91.60
2024-02-16T09:27:58.609Z,91.50
2024-02-16T09:30:37.540Z,91.90
2024-02-16T09:33:10.051Z,91.70
2024-02-16T09:35:48.708Z,91.70
2024-02-16T09:38:21.112Z,91.60
2024-02-16T09:41:00.641Z,91.80
2024-02-16T09:43:32.760Z,91.70
2024-02-16T09:46:11.567Z,91.60
2024-02-16T09:48:47.532Z,91.70
2024-02-16T09:51:26.772Z,91.50
2024-02-16T09:54:00.005Z,91.50
2024-02-16T09:56:47.549Z,91.50
2024-02-16T09:59:19.700Z,91.40
2024-02-16T10:02:10.693Z,91.50
2024-02-16T10:04:42.986Z,91.40
2024-02-16T10:07:21.592Z,91.70
2024-02-16T10:09:53.697Z,91.50
2024-02-16T10:12:32.615Z,91.60
2024-02-16T10:15:05.319Z,91.40
2024-02-16T10:17:44.762Z,91.60
2024-02-16T10:20:20.137Z,91.80
2024-02-16T10:23:16.535Z,91.70
2024-02-16T10:25:48.630Z,91.50
2024-02-16T10:28:28.644Z,91.60
2024-02-16T10:31:01.783Z,91.70
2024-02-16T10:33:40.708Z,91.90
2024-02-16T10:36:13.806Z,91.90
2024-02-16T10:38:53.878Z,92.00
2024-02-16T10:41:29.120Z,92.00
2024-02-16T10:44:08.674Z,92.00
2024-02-16T10:46:41.933Z,92.00
2024-02-16T10:49:20.954Z,92.10
2024-02-16T10:51:56.870Z,92.20
2024-02-16T10:54:39.871Z,92.40
2024-02-16T10:57:12.176Z,92.30
2024-02-16T10:59:54.696Z,92.30
2024-02-16T11:02:27.300Z,92.20
2024-02-16T11:05:05.629Z,92.30
2024-02-16T11:07:38.253Z,92.40
2024-02-16T11:10:20.663Z,92.20
2024-02-16T11:12:55.765Z,92.30
2024-02-16T11:15:40.785Z,92.30
2024-02-16T11:18:13.126Z,92.20
2024-02-16T11:20:52.342Z,92.40
2024-02-16T11:23:31.911Z,92.50
2024-02-16T11:26:16.751Z,92.30
2024-02-16T11:28:49.131Z,92.40
2024-02-16T11:31:28.891Z,92.40
2024-02-16T11:34:01.242Z,92.40
2024-02-16T11:36:40.842Z,92.20
2024-02-16T11:39:16.226Z,92.30
2024-02-16T11:41:54.827Z,92.20
2024-02-16T11:44:27.666Z,92.10
2024-02-16T11:47:07.541Z,92.10
2024-02-16T11:49:40.066Z,92.10
2024-02-16T11:52:18.672Z,92.10
2024-02-16T11:54:50.860Z,91.90
2024-02-16T11:57:30.830Z,92.00
2024-02-16T12:00:05.052Z,92.00
2024-02-16T12:02:43.659Z,91.90
2024-02-16T12:05:16.465Z,91.90
2024-02-16T12:07:55.746Z,92.10
2024-02-16T12:10:30.340Z,91.90
2024-02-16T12:13:09.790Z,91.90
2024-02-16T12:15:41.984Z,91.90
2024-02-16T12:18:33.805Z,91.70
2024-02-16T12:21:09.237Z,91.60
2024-02-16T12:23:56.916Z,91.40
2024-02-16T12:26:28.991Z,91.40
2024-02-16T12:29:07.605Z,91.40
2024-02-16T12:31:43.800Z,91.20
2024-02-16T12:34:22.977Z,91.30
2024-02-16T12:36:55.314Z,91.30
2024-02-16T12:39:33.739Z,91.30
2024-02-16T12:42:06.005Z,91.50
2024-02-16T12:44:44.618Z,91.40
2024-02-16T12:47:16.816Z,91.10
2024-02-16T12:49:55.869Z,91.10
2024-02-16T12:52:35.873Z,91.10
2024-02-16T12:55:15.908Z,91.10
2024-02-16T12:57:48.428Z,91.20
2024-02-16T13:00:28.055Z,91.00
2024-02-16T13:03:00.225Z,90.90
2024-02-16T13:05:38.762Z,91.00
2024-02-16T13:08:11.192Z,91.10
2024-02-16T13:10:49.815Z,91.00
2024-02-16T13:13:21.964Z,91.00
2024-02-16T13:16:00.885Z,91.10
2024-02-16T13:18:33.529Z,91.20
2024-02-16T13:21:12.750Z,91.10
2024-02-16T13:23:45.147Z,91.10
2024-02-16T13:26:23.695Z,91.00
2024-02-16T13:28:56.965Z,91.10
2024-02-16T13:31:35.782Z,91.00
2024-02-16T13:34:07.976Z,91.00
2024-02-16T13:36:46.875Z,91.00
2024-02-16T13:39:19.217Z,91.00
2024-02-16T13:42:00.367Z,91.10
2024-02-16T13:44:32.845Z,91.20
2024-02-16T13:47:11.676Z,91.10
2024-02-16T13:49:43.981Z,91.00
2024-02-16T13:52:22.686Z,91.20
2024-02-16T13:54:54.881Z,91.10
2024-02-16T13:57:33.721Z,90.80
2024-02-16T14:00:07.689Z,90.90
2024-02-16T14:02:47.102Z,90.70
2024-02-16T14:05:19.550Z,91.00
2024-02-16T14:08:00.996Z,90.60
2024-02-16T14:10:34.433Z,90.70
2024-02-16T14:13:12.670Z,90.70
2024-02-16T14:15:44.814Z,90.70
2024-02-16T14:18:30.351Z,90.70
2024-02-16T14:21:07.301Z,90.60
2024-02-16T14:23:46.819Z,90.30
2024-02-16T14:26:19.002Z,90.10
2024-02-16T14:28:57.726Z,90.10
2024-02-16T14:31:30.069Z,90.20
2024-02-16T14:34:08.933Z,90.00
2024-02-16T14:36:41.653Z,90.00
2024-02-16T14:39:20.717Z,90.10
2024-02-16T14:41:52.873Z,90.20
2024-02-16T14:44:31.983Z,90.10
2024-02-16T14:47:04.459Z,90.00
2024-02-16T14:49:42.869Z,90.00
2024-02-16T14:52:16.463Z,90.10
2024-02-16T14:54:55.725Z,90.10
2024-02-16T14:57:28.142Z,90.10
2024-02-16T15:00:07.041Z,90.10
2024-02-16T15:02:40.123Z,90.10
2024-02-16T15:05:18.747Z,90.10
2024-02-16T15:07:50.874Z,89.80
2024-02-16T15:10:29.684Z,90.00
2024-02-16T15:13:01.940Z,89.90
2024-02-16T15:15:40.820Z,89.80
2024-02-16T15:18:13.183Z,89.50
2024-02-16T15:20:55.294Z,89.50
2024-02-16T15:23:28.133Z,89.50
2024-02-16T15:26:06.764Z,89.50
2024-02-16T15:28:39.136Z,89.50
2024-02-16T15:31:18.805Z,89.60
2024-02-16T15:33:51.269Z,89.90
2024-02-16T15:36:30.885Z,89.70
2024-02-16T15:39:03.129Z,89.50
2024-02-16T15:41:41.689Z,89.50
2024-02-16T15:44:14.043Z,89.30
2024-02-16T15:46:52.761Z,89.30
2024-02-16T15:49:25.292Z,89.20
2024-02-16T15:52:03.683Z,89.30
2024-02-16T15:54:36.046Z,89.10
2024-02-16T15:57:14.873Z,88.90
2024-02-16T15:59:47.646Z,88.80
2024-02-16T16:02:26.865Z,88.70
2024-02-16T16:05:02.279Z,88.50
2024-02-16T16:07:41.499Z,88.60
2024-02-16T16:10:16.134Z,88.70
2024-02-16T16:12:54.797Z,88.60
2024-02-16T16:15:27.217Z,88.40
2024-02-16T16:18:05.827Z,88.10
2024-02-16T16:20:38.255Z,88.00
2024-02-16T16:23:16.814Z,88.20
2024-02-16T16:25:56.944Z,88.10
2024-02-16T16:28:36.904Z,88.20
2024-02-16T16:31:09.523Z,88.40
2024-02-16T16:33:47.978Z,88.00
2024-02-16T16:36:20.657Z,88.00
2024-02-16T16:39:00.123Z,87.90
2024-02-16T16:41:32.587Z,87.80
2024-02-16T16:44:11.786Z,88.00
2024-02-16T16:46:44.156Z,88.00
2024-02-16T16:49:22.948Z,87.60
2024-02-16T16:51:55.366Z,87.60
2024-02-16T16:54:33.872Z,87.70
2024-02-16T16:57:09.232Z,88.00
2024-02-16T16:59:47.915Z,88.00
2024-02-16T17:02:20.005Z,87.80
2024-02-16T17:04:58.991Z,87.80
2024-02-16T17:07:31.518Z,87.70
2024-02-16T17:10:10.772Z,87.70
2024-02-16T17:12:49.440Z,87.70
2024-02-16T17:15:28.856Z,87.70
2024-02-16T17:18:03.552Z,87.60
2024-02-16T17:20:45.941Z,87.50
2024-02-16T17:23:18.600Z,87.30
2024-02-16T17:25:57.765Z,87.20
2024-02-16T17:31:17.750Z,87.20
2024-02-16T17:33:50.659Z,87.00
2024-02-16T17:36:29.960Z,86.90
2024-02-16T17:39:02.921Z,87.00
2024-02-16T17:41:42.609Z,86.80
2024-02-16T17:44:15.056Z,86.60
2024-02-16T17:46:58.384Z,86.70
2024-02-16T17:49:30.947Z,86.10
2024-02-16T17:52:09.859Z,85.90
2024-02-16T17:54:42.203Z,85.90
2024-02-16T17:57:20.875Z,86.10
2024-02-16T17:59:53.271Z,85.80
2024-02-16T18:02:39.889Z,85.60
2024-02-16T18:05:14.547Z,85.40
2024-02-16T18:07:53.927Z,85.30
2024-02-16T18:10:26.238Z,85.30
2024-02-16T18:13:04.893Z,85.20
2024-02-16T18:15:37.297Z,85.40
2024-02-16T18:18:15.960Z,85.20
2024-02-16T18:20:48.577Z,84.90
2024-02-16T18:23:26.781Z,85.10
2024-02-16T18:25:58.993Z,84.90
2024-02-16T18:28:45.357Z,84.70
2024-02-16T18:31:18.531Z,84.70
2024-02-16T18:34:05.056Z,84.80
2024-02-16T18:36:37.604Z,84.40
2024-02-16T18:39:16.842Z,84.60
2024-02-16T18:41:49.209Z,84.30
2024-02-16T18:44:27.896Z,84.30
2024-02-16T18:47:00.762Z,84.20
2024-02-16T18:49:40.053Z,84.00
2024-02-16T18:52:12.292Z,84.00
2024-02-16T18:54:53.082Z,83.90
2024-02-16T18:57:25.537Z,83.90
2024-02-16T19:00:05.070Z,83.80
2024-02-16T19:02:37.359Z,83.60
2024-02-16T19:05:16.822Z,83.90
2024-02-16T19:07:49.165Z,83.60
2024-02-16T19:10:30.809Z,83.70
2024-02-16T19:13:03.091Z,83.60
2024-02-16T19:15:42.142Z,83.30
2024-02-16T19:18:14.406Z,83.20
2024-02-16T19:20:52.817Z,82.90
2024-02-16T19:23:25.381Z,82.90
2024-02-16T19:26:05.005Z,83.10
2024-02-16T19:28:37.504Z,82.80
2024-02-16T19:31:16.135Z,82.80
2024-02-16T19:33:48.775Z,82.50
2024-02-16T19:36:27.882Z,82.60
2024-02-16T19:39:00.202Z,82.50
2024-02-16T19:41:39.205Z,82.50
2024-02-16T19:44:11.495Z,82.50
2024-02-16T19:46:51.015Z,82.40
2024-02-16T19:49:23.293Z,82.40
2024-02-16T19:52:02.941Z,82.30
2024-02-16T19:54:43.311Z,82.30
2024-02-16T19:57:22.069Z,82.20
2024-02-16T19:59:54.218Z,82.20
2024-02-16T20:02:33.854Z,82.20
2024-02-16T20:05:12.326Z,81.90
2024-02-16T20:07:51.074Z,82.00
2024-02-16T20:10:23.451Z,81.90
2024-02-16T20:13:01.840Z,81.40
2024-02-16T20:15:34.212Z,81.60
2024-02-16T20:18:13.677Z,81.60
2024-02-16T20:20:46.572Z,81.50
2024-02-16T20:23:25.091Z,81.60
2024-02-16T20:25:57.552Z,81.10
2024-02-16T20:28:37.204Z,81.20
2024-02-16T20:31:09.666Z,81.00
2024-02-16T20:33:48.361Z,81.10
2024-02-16T20:36:20.845Z,80.90
2024-02-16T20:38:59.975Z,80.60
2024-02-16T20:41:32.348Z,80.80
2024-02-16T20:44:10.945Z,81.10
2024-02-16T20:46:43.234Z,81.50
2024-02-16T20:49:22.154Z,82.20
2024-02-16T20:51:54.438Z,82.80
2024-02-16T20:54:32.989Z,83.40
2024-02-16T20:57:05.986Z,83.70
2024-02-16T20:59:46.705Z,83.60
2024-02-16T21:02:20.563Z,83.60
2024-02-16T21:05:00.002Z,83.90
2024-02-16T21:07:32.272Z,83.30
2024-02-16T21:10:11.052Z,83.10
2024-02-16T21:12:43.694Z,83.10
2024-02-16T21:15:23.179Z,82.50
2024-02-16T21:17:55.716Z,82.00
2024-02-16T21:20:35.085Z,81.90
2024-02-16T21:23:07.354Z,81.40
2024-02-16T21:25:45.881Z,81.40
2024-02-16T21:28:18.062Z,81.50
2024-02-16T21:30:57.050Z,81.30
2024-02-16T21:33:29.382Z,81.00
2024-02-16T21:36:07.971Z,80.60
2024-02-16T21:38:40.256Z,80.70
2024-02-16T21:41:19.117Z,81.20
2024-02-16T21:43:51.508Z,80.70
2024-02-16T21:46:41.073Z,80.50
2024-02-16T21:49:13.454Z,80.20
2024-02-16T21:51:51.973Z,80.20
2024-02-16T21:54:24.225Z,80.00
2024-02-16T21:57:03.021Z,80.40
2024-02-16T21:59:35.254Z,80.10
2024-02-16T22:02:15.145Z,80.40
2024-02-16T22:04:48.915Z,80.50
2024-02-16T22:07:28.181Z,80.30
2024-02-16T22:10:00.758Z,80.40
2024-02-16T22:12:40.171Z,80.50
2024-02-16T22:15:12.414Z,80.70
2024-02-16T22:17:51.066Z,80.70
2024-02-16T22:20:23.459Z,80.70
2024-02-16T22:23:02.012Z,80.80
2024-02-16T22:25:34.242Z,81.30
2024-02-16T22:28:12.979Z,81.40
2024-02-16T22:30:45.283Z,81.30
2024-02-16T22:33:24.052Z,81.50
2024-02-16T22:35:57.475Z,81.40
2024-02-16T22:38:35.966Z,81.50
2024-02-16T22:41:08.128Z,81.60
2024-02-16T22:43:48.040Z,81.50
2024-02-16T22:46:20.315Z,81.40
2024-02-16T22:48:59.153Z,81.70
2024-02-16T22:51:37.161Z,81.90
2024-02-16T22:54:23.249Z,81.50
2024-02-16T22:56:55.913Z,81.50
2024-02-16T22:59:35.052Z,81.70
2024-02-16T23:02:07.272Z,81.50
2024-02-16T23:04:46.322Z,81.40
2024-02-16T23:07:20.905Z,81.60
2024-02-16T23:10:00.959Z,81.60
2024-02-16T23:12:33.248Z,81.40
2024-02-16T23:15:14.999Z,81.30
2024-02-16T23:17:48.356Z,81.20
2024-02-16T23:20:27.180Z,81.00
2024-02-16T23:23:04.168Z,81.20
2024-02-16T23:25:49.093Z,81.20
2024-02-16T23:28:21.469Z,80.80
2024-02-16T23:31:00.095Z,80.70
2024-02-16T23:33:40.913Z,80.70
2024-02-16T23:36:20.086Z,80.90
2024-02-16T23:38:52.326Z,80.60
2024-02-16T23:41:32.023Z,81.00
2024-02-16T23:44:04.448Z,80.80
2024-02-16T23:46:43.018Z,80.90
2024-02-16T23:49:15.321Z,81.10
2024-02-16T23:51:54.150Z,81.50
2024-02-16T23:54:26.471Z,81.20
2024-02-16T23:57:04.919Z,81.00
2024-02-16T23:59:55.476Z,81.30
